Time;durP1;ratioP1;P1;durP2;ratioP2;P2;SDS_P1;SDS_P2;PMS_P1;PMS_P2;Temp;Humidity;BMP_temperature;BMP_pressure;BME280_temperature;BME280_humidity;BME280_pressure;Samples;Min_cycle;Max_cycle;Signal;HPM_P1;HPM_P2
2023/06/25 00:01:55;;;;;;;6.15;4.90;;;;;;;;;;5056085;28;20047;-77
2023/06/25 00:04:21;;;;;;;5.10;3.92;;;;;;;;;;5056221;28;20035;-77
2023/06/25 00:06:47;;;;;;;4.57;3.95;;;;;;;;;;5073959;28;20029;-78
2023/06/25 00:09:12;;;;;;;5.68;3.90;;;;;;;;;;5073934;28;20081;-77
2023/06/25 00:11:38;;;;;;;4.30;3.40;;;;;;;;;;5056348;28;20033;-77
2023/06/25 00:14:03;;;;;;;6.25;3.70;;;;;;;;;;5073781;28;20039;-77
2023/06/25 00:16:29;;;;;;;4.82;3.58;;;;;;;;;;5056271;28;20082;-77
2023/06/25 00:18:56;;;;;;;4.47;3.70;;;;;;;;;;5074192;28;20089;-77
2023/06/25 00:21:21;;;;;;;4.13;3.33;;;;;;;;;;5056070;28;20028;-77
2023/06/25 00:23:47;;;;;;;4.57;3.50;;;;;;;;;;5074202;28;20025;-77
2023/06/25 00:26:12;;;;;;;4.75;3.58;;;;;;;;;;5039032;28;20029;-77
2023/06/25 00:28:37;;;;;;;5.10;3.35;;;;;;;;;;5055651;28;20028;-76
2023/06/25 00:31:04;;;;;;;3.85;3.45;;;;;;;;;;5073589;28;20475;-77
2023/06/25 00:33:31;;;;;;;4.97;3.33;;;;;;;;;;5056134;28;20036;-76
2023/06/25 00:35:57;;;;;;;5.18;3.30;;;;;;;;;;5055451;28;20115;-76
2023/06/25 00:38:22;;;;;;;5.05;3.30;;;;;;;;;;5055472;28;20158;-76
2023/06/25 00:40:50;;;;;;;6.55;3.30;;;;;;;;;;5056094;28;20075;-76
2023/06/25 00:43:15;;;;;;;6.05;3.50;;;;;;;;;;5055395;28;20395;-76
2023/06/25 00:45:41;;;;;;;3.42;3.13;;;;;;;;;;5055805;28;20031;-76
2023/06/25 00:48:07;;;;;;;3.67;3.28;;;;;;;;;;5039112;28;20029;-76
2023/06/25 00:50:33;;;;;;;4.82;2.85;;;;;;;;;;5055676;28;20040;-76
2023/06/25 00:53:01;;;;;;;3.70;3.00;;;;;;;;;;5055370;28;20040;-76
2023/06/25 00:55:27;;;;;;;5.15;2.97;;;;;;;;;;5055517;28;20032;-76
2023/06/25 00:57:55;;;;;;;5.30;3.13;;;;;;;;;;5055871;28;20529;-77
2023/06/25 01:00:24;;;;;;;4.32;3.22;;;;;;;;;;5044130;28;20056;-77
2023/06/25 01:03:04;;;;;;;3.50;2.90;;;;;;;;;;5035600;28;20021;-77
2023/06/25 01:05:58;;;;;;;3.40;3.10;;;;;;;;;;5034591;28;20028;-77
2023/06/25 01:08:28;;;;;;;5.38;3.00;;;;;;;;;;5035385;28;20480;-77
2023/06/25 01:10:54;;;;;;;4.00;3.20;;;;;;;;;;5035972;28;20024;-77
2023/06/25 01:13:20;;;;;;;3.70;2.88;;;;;;;;;;5035305;28;20025;-76
2023/06/25 01:15:45;;;;;;;2.85;2.53;;;;;;;;;;5035089;28;20039;-77
2023/06/25 01:18:13;;;;;;;2.85;2.60;;;;;;;;;;5053511;28;20115;-77
2023/06/25 01:20:40;;;;;;;3.22;2.92;;;;;;;;;;5035547;28;20040;-77
2023/06/25 01:23:06;;;;;;;3.55;3.00;;;;;;;;;;5002439;28;20025;-77
2023/06/25 01:25:32;;;;;;;3.40;2.90;;;;;;;;;;5035127;28;20029;-77
2023/06/25 01:27:57;;;;;;;4.22;3.22;;;;;;;;;;5035164;28;20428;-77
2023/06/25 01:30:25;;;;;;;3.92;3.20;;;;;;;;;;5052813;28;20124;-77
2023/06/25 01:32:50;;;;;;;4.18;2.90;;;;;;;;;;5002822;28;20060;-77
2023/06/25 01:35:17;;;;;;;3.70;3.10;;;;;;;;;;5018447;28;20115;-77
2023/06/25 01:37:42;;;;;;;3.92;2.90;;;;;;;;;;5034885;28;20048;-77
2023/06/25 01:40:08;;;;;;;4.70;3.10;;;;;;;;;;5034850;28;20468;-77
2023/06/25 01:42:34;;;;;;;4.05;2.78;;;;;;;;;;5052570;28;20438;-77
2023/06/25 01:44:59;;;;;;;2.88;2.63;;;;;;;;;;5052629;28;20040;-76
2023/06/25 01:47:25;;;;;;;3.17;2.72;;;;;;;;;;5034833;28;20387;-77
2023/06/25 01:49:50;;;;;;;4.22;3.00;;;;;;;;;;5052905;28;20044;-77
2023/06/25 01:52:16;;;;;;;3.75;2.90;;;;;;;;;;5018361;28;20040;-77
2023/06/25 01:54:41;;;;;;;3.83;2.60;;;;;;;;;;5052491;28;20368;-77
2023/06/25 01:57:06;;;;;;;3.55;2.78;;;;;;;;;;5034977;28;20025;-77
2023/06/25 01:59:35;;;;;;;4.20;3.00;;;;;;;;;;5018394;28;20416;-76
2023/06/25 02:02:01;;;;;;;3.70;2.63;;;;;;;;;;5035218;28;20037;-77
2023/06/25 02:04:27;;;;;;;3.03;2.70;;;;;;;;;;5034765;28;20464;-77
2023/06/25 02:06:53;;;;;;;3.63;3.05;;;;;;;;;;5052608;28;20036;-77
2023/06/25 02:09:18;;;;;;;3.03;2.72;;;;;;;;;;5035059;28;20059;-77
2023/06/25 02:11:45;;;;;;;3.40;3.10;;;;;;;;;;5034872;28;20056;-77
2023/06/25 02:14:11;;;;;;;2.88;2.60;;;;;;;;;;5052749;28;20491;-77
2023/06/25 02:16:36;;;;;;;3.53;2.70;;;;;;;;;;5037837;28;20029;-77
2023/06/25 02:19:02;;;;;;;3.40;3.10;;;;;;;;;;5038353;28;20097;-77
2023/06/25 02:21:27;;;;;;;3.88;3.20;;;;;;;;;;5038242;28;20392;-77
2023/06/25 02:23:52;;;;;;;3.95;3.13;;;;;;;;;;5055848;28;20040;-76
2023/06/25 02:26:18;;;;;;;3.85;2.90;;;;;;;;;;5055827;28;20056;-77
2023/06/25 02:28:43;;;;;;;5.75;3.05;;;;;;;;;;5055827;28;20063;-77
2023/06/25 02:31:08;;;;;;;4.07;2.90;;;;;;;;;;5055782;28;20029;-77
2023/06/25 02:33:34;;;;;;;4.43;3.28;;;;;;;;;;5055938;28;20036;-77
2023/06/25 02:35:59;;;;;;;4.15;3.53;;;;;;;;;;5055645;28;20098;-77
2023/06/25 02:38:24;;;;;;;4.35;3.42;;;;;;;;;;5055694;28;20033;-77
2023/06/25 02:40:50;;;;;;;2.90;2.70;;;;;;;;;;5037933;28;20066;-77
2023/06/25 02:43:15;;;;;;;3.30;3.00;;;;;;;;;;5037704;28;20124;-77
2023/06/25 02:45:41;;;;;;;6.00;3.25;;;;;;;;;;5055817;28;20105;-77
2023/06/25 02:48:06;;;;;;;3.17;2.67;;;;;;;;;;5038208;28;20065;-77
2023/06/25 02:50:31;;;;;;;6.15;3.50;;;;;;;;;;5055549;28;20531;-77
2023/06/25 02:52:58;;;;;;;5.47;3.17;;;;;;;;;;5055914;28;20029;-77
2023/06/25 02:55:23;;;;;;;3.10;2.67;;;;;;;;;;5037518;28;20068;-76
2023/06/25 02:57:49;;;;;;;3.80;2.97;;;;;;;;;;5055494;28;20064;-76
2023/06/25 03:00:14;;;;;;;3.22;2.92;;;;;;;;;;5065610;28;20457;-76
2023/06/25 03:02:40;;;;;;;4.97;3.58;;;;;;;;;;5040580;28;20032;-76
2023/06/25 03:05:05;;;;;;;4.43;3.20;;;;;;;;;;5057249;28;20024;-77
2023/06/25 03:07:31;;;;;;;3.40;2.60;;;;;;;;;;5075079;28;20040;-77
2023/06/25 03:09:56;;;;;;;6.10;3.28;;;;;;;;;;5075247;28;20037;-77
2023/06/25 03:12:21;;;;;;;3.95;3.20;;;;;;;;;;5075469;28;20119;-77
2023/06/25 03:14:47;;;;;;;3.72;2.92;;;;;;;;;;5056883;28;20036;-77
2023/06/25 03:17:12;;;;;;;4.00;3.53;;;;;;;;;;5075428;28;20036;-77
2023/06/25 03:19:37;;;;;;;3.60;2.95;;;;;;;;;;5074781;28;20032;-77
2023/06/25 03:22:03;;;;;;;5.32;3.03;;;;;;;;;;5074696;28;20029;-77
2023/06/25 03:24:28;;;;;;;4.28;3.30;;;;;;;;;;5074923;28;20116;-77
2023/06/25 03:26:54;;;;;;;3.65;3.25;;;;;;;;;;5073930;28;20033;-77
2023/06/25 03:29:19;;;;;;;3.60;3.30;;;;;;;;;;5074748;28;20039;-76
2023/06/25 03:31:44;;;;;;;3.65;2.85;;;;;;;;;;5056589;28;20386;-77
2023/06/25 03:34:10;;;;;;;3.22;2.75;;;;;;;;;;5056386;28;20029;-77
2023/06/25 03:36:35;;;;;;;3.53;3.00;;;;;;;;;;5056287;28;20174;-77
2023/06/25 03:39:01;;;;;;;4.60;2.65;;;;;;;;;;5074613;28;20505;-77
2023/06/25 03:41:26;;;;;;;2.88;2.60;;;;;;;;;;5074779;28;20024;-78
2023/06/25 03:43:51;;;;;;;4.57;3.05;;;;;;;;;;5074289;28;20028;-77
2023/06/25 03:46:17;;;;;;;3.17;2.85;;;;;;;;;;5056517;28;20021;-78
2023/06/25 03:48:43;;;;;;;5.78;3.20;;;;;;;;;;5056430;28;20036;-77
2023/06/25 03:51:09;;;;;;;3.10;2.50;;;;;;;;;;5056152;28;20025;-78
2023/06/25 03:53:34;;;;;;;2.97;2.70;;;;;;;;;;5074265;28;20131;-77
2023/06/25 03:56:00;;;;;;;3.05;2.75;;;;;;;;;;5073881;28;20082;-77
2023/06/25 03:58:25;;;;;;;2.80;2.58;;;;;;;;;;5056249;28;20029;-77
2023/06/25 04:00:50;;;;;;;3.00;2.60;;;;;;;;;;5074107;28;20399;-78
2023/06/25 04:03:16;;;;;;;3.55;3.25;;;;;;;;;;5073958;28;20082;-77
2023/06/25 04:05:41;;;;;;;4.50;3.40;;;;;;;;;;5056082;28;20061;-77
2023/06/25 04:08:07;;;;;;;3.92;3.38;;;;;;;;;;5074137;28;20091;-77
2023/06/25 04:10:32;;;;;;;3.50;2.80;;;;;;;;;;5056602;28;20036;-77
2023/06/25 04:12:57;;;;;;;3.80;3.25;;;;;;;;;;5056479;28;20021;-77
2023/06/25 04:15:23;;;;;;;4.72;3.47;;;;;;;;;;5056110;28;20078;-77
2023/06/25 04:17:48;;;;;;;3.33;3.03;;;;;;;;;;5074239;28;20058;-77
2023/06/25 04:20:14;;;;;;;3.40;3.10;;;;;;;;;;5055950;28;20498;-77
2023/06/25 04:22:39;;;;;;;2.47;2.28;;;;;;;;;;5039421;28;20395;-77
2023/06/25 04:25:05;;;;;;;3.10;2.80;;;;;;;;;;5073961;28;20115;-76
2023/06/25 04:27:31;;;;;;;4.03;3.00;;;;;;;;;;5073747;28;20402;-77
2023/06/25 04:29:56;;;;;;;3.25;2.75;;;;;;;;;;5073798;28;20032;-77
2023/06/25 04:32:22;;;;;;;2.80;2.60;;;;;;;;;;5073797;28;20028;-77
2023/06/25 04:34:47;;;;;;;2.58;2.38;;;;;;;;;;5056284;28;20028;-77
2023/06/25 04:37:13;;;;;;;3.42;2.72;;;;;;;;;;5073768;28;20055;-77
2023/06/25 04:39:41;;;;;;;3.28;2.63;;;;;;;;;;5054962;28;20119;-77
2023/06/25 04:42:06;;;;;;;3.40;2.70;;;;;;;;;;5073559;28;20032;-77
2023/06/25 04:44:32;;;;;;;2.97;2.63;;;;;;;;;;5073945;28;20021;-77
2023/06/25 04:46:57;;;;;;;2.50;2.30;;;;;;;;;;5074049;28;20039;-77
2023/06/25 04:49:23;;;;;;;2.92;2.60;;;;;;;;;;5073531;28;20039;-77
2023/06/25 04:51:48;;;;;;;3.45;2.67;;;;;;;;;;5073658;28;20379;-77
2023/06/25 04:54:13;;;;;;;2.75;2.50;;;;;;;;;;5055527;28;20059;-77
2023/06/25 04:56:39;;;;;;;3.00;2.70;;;;;;;;;;5055561;28;20410;-77
2023/06/25 04:59:04;;;;;;;2.63;2.42;;;;;;;;;;5073445;28;20032;-77
2023/06/25 05:01:30;;;;;;;2.80;2.60;;;;;;;;;;5038798;28;20033;-77
2023/06/25 05:03:55;;;;;;;2.70;2.50;;;;;;;;;;5055458;28;20028;-77
2023/06/25 05:06:21;;;;;;;2.80;2.50;;;;;;;;;;5055417;28;20020;-77
2023/06/25 05:08:46;;;;;;;2.95;2.67;;;;;;;;;;5055706;28;20468;-77
2023/06/25 05:11:12;;;;;;;2.72;2.33;;;;;;;;;;5073770;28;20486;-77
2023/06/25 05:13:38;;;;;;;2.97;2.38;;;;;;;;;;5073768;28;20136;-78
2023/06/25 05:16:03;;;;;;;2.80;2.33;;;;;;;;;;5038634;28;20032;-78
2023/06/25 05:18:29;;;;;;;3.97;2.63;;;;;;;;;;5055359;28;20032;-77
2023/06/25 05:20:54;;;;;;;2.97;2.67;;;;;;;;;;5055142;28;20051;-77
2023/06/25 05:23:20;;;;;;;2.60;2.40;;;;;;;;;;5073206;28;20122;-77
2023/06/25 05:25:45;;;;;;;12.32;3.13;;;;;;;;;;5073077;28;20479;-77
2023/06/25 05:28:11;;;;;;;2.58;2.38;;;;;;;;;;5073688;28;20037;-77
2023/06/25 05:30:37;;;;;;;2.70;2.50;;;;;;;;;;5073184;28;20078;-77
2023/06/25 05:33:02;;;;;;;2.83;2.50;;;;;;;;;;5073013;28;20489;-77
2023/06/25 05:35:31;;;;;;;2.90;2.42;;;;;;;;;;5055354;28;20475;-77
2023/06/25 05:37:56;;;;;;;2.95;2.38;;;;;;;;;;5056126;28;20024;-77
2023/06/25 05:40:26;;;;;;;3.25;2.80;;;;;;;;;;5072910;28;20035;-77
2023/06/25 05:42:52;;;;;;;3.40;2.90;;;;;;;;;;5055009;28;20067;-77
2023/06/25 05:45:17;;;;;;;3.17;2.80;;;;;;;;;;5054997;28;20048;-77
2023/06/25 05:47:43;;;;;;;3.22;2.67;;;;;;;;;;5055192;28;20049;-78
2023/06/25 05:50:09;;;;;;;3.15;2.85;;;;;;;;;;5056070;28;20047;-77
2023/06/25 05:52:34;;;;;;;3.15;2.55;;;;;;;;;;5058733;28;20154;-77
2023/06/25 05:55:00;;;;;;;2.95;2.65;;;;;;;;;;5042008;28;20033;-77
2023/06/25 05:57:25;;;;;;;3.20;2.58;;;;;;;;;;5042094;28;20036;-77
2023/06/25 05:59:50;;;;;;;3.58;2.60;;;;;;;;;;5076285;28;20155;-75
2023/06/25 06:02:16;;;;;;;3.13;2.83;;;;;;;;;;5076425;28;20037;-76
2023/06/25 06:04:41;;;;;;;3.08;2.78;;;;;;;;;;5076518;28;20028;-77
2023/06/25 06:07:07;;;;;;;5.80;2.78;;;;;;;;;;5076366;28;20028;-76
2023/06/25 06:09:32;;;;;;;4.15;3.10;;;;;;;;;;5076601;28;20039;-76
2023/06/25 06:11:57;;;;;;;5.88;3.38;;;;;;;;;;5058406;28;20024;-76
2023/06/25 06:14:23;;;;;;;6.55;3.53;;;;;;;;;;5042013;28;20033;-76
2023/06/25 06:16:48;;;;;;;9.55;4.03;;;;;;;;;;5076825;28;20143;-77
2023/06/25 06:19:14;;;;;;;5.53;3.42;;;;;;;;;;5041539;28;20067;-77
2023/06/25 06:21:39;;;;;;;6.82;3.50;;;;;;;;;;5058260;28;20376;-80
2023/06/25 06:24:05;;;;;;;5.97;2.92;;;;;;;;;;5076121;28;20105;-79
2023/06/25 06:26:30;;;;;;;10.32;3.35;;;;;;;;;;5076144;28;20044;-78
2023/06/25 06:28:55;;;;;;;6.18;3.50;;;;;;;;;;5058369;28;20043;-78
2023/06/25 06:31:21;;;;;;;8.30;3.50;;;;;;;;;;5075924;28;20032;-78
2023/06/25 06:33:47;;;;;;;7.95;3.45;;;;;;;;;;5041497;28;20111;-78
2023/06/25 06:36:12;;;;;;;7.25;4.10;;;;;;;;;;5075976;28;20387;-78
2023/06/25 06:38:38;;;;;;;9.38;3.67;;;;;;;;;;5058104;28;20051;-78
2023/06/25 06:41:03;;;;;;;7.43;4.00;;;;;;;;;;5057948;28;20040;-78
2023/06/25 06:43:30;;;;;;;7.72;3.53;;;;;;;;;;5075792;28;20032;-78
2023/06/25 06:45:55;;;;;;;6.40;3.75;;;;;;;;;;5075978;28;20039;-78
2023/06/25 06:48:20;;;;;;;7.88;3.83;;;;;;;;;;5076279;28;20036;-78
2023/06/25 06:50:46;;;;;;;5.90;3.72;;;;;;;;;;5075648;28;20043;-78
2023/06/25 06:53:11;;;;;;;11.13;3.50;;;;;;;;;;5075704;28;20036;-78
2023/06/25 06:55:37;;;;;;;6.30;3.50;;;;;;;;;;5075507;28;20028;-78
2023/06/25 06:58:02;;;;;;;6.82;3.47;;;;;;;;;;5075502;28;20062;-78
2023/06/25 07:00:27;;;;;;;4.60;3.25;;;;;;;;;;5075067;28;20491;-77
2023/06/25 07:02:57;;;;;;;6.20;3.42;;;;;;;;;;5023353;28;20028;-77
2023/06/25 07:05:23;;;;;;;6.20;4.00;;;;;;;;;;5075553;28;20028;-78
2023/06/25 07:07:48;;;;;;;7.38;3.67;;;;;;;;;;5057338;28;20372;-79
2023/06/25 07:10:13;;;;;;;20.27;4.80;;;;;;;;;;5058120;28;20032;-78
2023/06/25 07:12:39;;;;;;;40.55;10.63;;;;;;;;;;5057264;28;20056;-78
2023/06/25 07:15:05;;;;;;;39.35;9.38;;;;;;;;;;5057597;28;20024;-78
2023/06/25 07:17:30;;;;;;;29.60;8.60;;;;;;;;;;5057306;28;20036;-78
2023/06/25 07:19:56;;;;;;;29.42;8.65;;;;;;;;;;5075310;28;20474;-78
2023/06/25 07:22:21;;;;;;;30.40;8.35;;;;;;;;;;5057208;28;20044;-78
2023/06/25 07:24:46;;;;;;;32.03;9.05;;;;;;;;;;5075280;28;20032;-79
2023/06/25 07:27:12;;;;;;;30.55;9.65;;;;;;;;;;5057517;28;20025;-79
2023/06/25 07:29:37;;;;;;;29.27;8.23;;;;;;;;;;5075407;28;20029;-79
2023/06/25 07:32:03;;;;;;;24.70;8.95;;;;;;;;;;5075431;28;20104;-79
2023/06/25 07:34:29;;;;;;;27.25;8.82;;;;;;;;;;5074505;28;20083;-78
2023/06/25 07:36:54;;;;;;;22.42;8.32;;;;;;;;;;5074707;28;20086;-79
2023/06/25 07:39:29;;;;;;;21.50;8.07;;;;;;;;;;5074761;28;20025;-79
2023/06/25 07:41:55;;;;;;;21.88;8.20;;;;;;;;;;5056954;28;20025;-76
2023/06/25 07:44:21;;;;;;;21.58;8.13;;;;;;;;;;5057001;28;20144;-79
2023/06/25 07:46:47;;;;;;;19.98;7.72;;;;;;;;;;5074506;28;20028;-79
2023/06/25 07:49:12;;;;;;;21.30;6.93;;;;;;;;;;5057090;28;20036;-79
2023/06/25 07:51:37;;;;;;;25.10;7.93;;;;;;;;;;5057148;28;20037;-76
2023/06/25 07:54:03;;;;;;;22.13;7.45;;;;;;;;;;5074359;28;20082;-76
2023/06/25 07:56:28;;;;;;;14.18;6.63;;;;;;;;;;5056916;28;20555;-77
2023/06/25 07:58:54;;;;;;;16.77;6.50;;;;;;;;;;5056540;28;20601;-77
2023/06/25 08:01:20;;;;;;;15.70;6.70;;;;;;;;;;5036737;28;20053;-77
2023/06/25 08:03:45;;;;;;;23.48;6.82;;;;;;;;;;5054501;28;20029;-76
2023/06/25 08:06:11;;;;;;;17.55;6.22;;;;;;;;;;5054126;28;20044;-77
2023/06/25 08:08:36;;;;;;;14.93;6.28;;;;;;;;;;5036382;28;20037;-77
2023/06/25 08:11:02;;;;;;;13.45;6.38;;;;;;;;;;5054155;28;20028;-77
2023/06/25 08:13:27;;;;;;;18.85;6.53;;;;;;;;;;5036126;28;20479;-78
2023/06/25 08:15:53;;;;;;;12.65;5.97;;;;;;;;;;5036142;28;20036;-78
2023/06/25 08:18:18;;;;;;;12.32;5.60;;;;;;;;;;5054429;28;20041;-77
2023/06/25 08:20:46;;;;;;;13.07;5.75;;;;;;;;;;5019814;28;20075;-77
2023/06/25 08:23:11;;;;;;;13.73;5.40;;;;;;;;;;5054351;28;20033;-77
2023/06/25 08:25:36;;;;;;;12.27;5.68;;;;;;;;;;5036974;28;20448;-77
2023/06/25 08:28:02;;;;;;;14.05;5.07;;;;;;;;;;5054170;28;20115;-77
2023/06/25 08:30:27;;;;;;;11.68;5.72;;;;;;;;;;5037353;28;20029;-77
2023/06/25 08:32:53;;;;;;;15.90;5.70;;;;;;;;;;5036448;28;20033;-78
2023/06/25 08:35:18;;;;;;;12.50;5.20;;;;;;;;;;5036262;28;20033;-78
2023/06/25 08:37:43;;;;;;;8.60;5.28;;;;;;;;;;5053590;28;20056;-78
2023/06/25 08:40:12;;;;;;;10.30;4.82;;;;;;;;;;5054689;28;20460;-78
2023/06/25 08:42:39;;;;;;;11.80;5.05;;;;;;;;;;5035946;28;20387;-78
2023/06/25 08:45:05;;;;;;;11.20;5.00;;;;;;;;;;5019365;28;20033;-78
2023/06/25 08:47:37;;;;;;;10.40;4.72;;;;;;;;;;5053586;28;20381;-78
2023/06/25 08:50:03;;;;;;;8.90;4.85;;;;;;;;;;5036146;28;20027;-78
2023/06/25 08:52:30;;;;;;;11.95;5.15;;;;;;;;;;5035571;28;20033;-78
2023/06/25 08:54:55;;;;;;;14.93;4.72;;;;;;;;;;5035661;28;20029;-78
2023/06/25 08:57:20;;;;;;;8.25;4.30;;;;;;;;;;5035509;28;20037;-78
2023/06/25 08:59:46;;;;;;;8.65;4.38;;;;;;;;;;5035782;28;20064;-78
2023/06/25 09:02:11;;;;;;;9.32;4.30;;;;;;;;;;5035458;28;20064;-78
2023/06/25 09:04:37;;;;;;;7.28;4.40;;;;;;;;;;5053818;28;20478;-78
2023/06/25 09:07:15;;;;;;;7.28;4.40;;;;;;;;;;5035388;28;20032;-78
2023/06/25 09:09:42;;;;;;;7.32;4.38;;;;;;;;;;5035850;28;20052;-77
2023/06/25 09:12:07;;;;;;;7.20;4.30;;;;;;;;;;5018876;28;20558;-78
2023/06/25 09:14:33;;;;;;;9.13;4.25;;;;;;;;;;5053034;28;20061;-78
2023/06/25 09:16:58;;;;;;;8.00;4.13;;;;;;;;;;5019196;28;20475;-78
2023/06/25 09:19:24;;;;;;;6.25;3.92;;;;;;;;;;5035217;28;20373;-78
2023/06/25 09:21:50;;;;;;;8.25;4.05;;;;;;;;;;5035098;28;20037;-78
2023/06/25 09:24:17;;;;;;;8.70;4.15;;;;;;;;;;5053223;28;20565;-78
2023/06/25 09:26:53;;;;;;;6.10;3.92;;;;;;;;;;5038739;28;20464;-78
2023/06/25 09:29:20;;;;;;;4.78;3.50;;;;;;;;;;5058277;28;20111;-78
2023/06/25 09:31:46;;;;;;;5.85;3.45;;;;;;;;;;5040672;28;20111;-78
2023/06/25 09:34:17;;;;;;;4.50;3.25;;;;;;;;;;5041852;28;20049;-78
2023/06/25 09:36:43;;;;;;;6.55;3.80;;;;;;;;;;5059622;28;20369;-77
2023/06/25 09:39:10;;;;;;;4.80;3.65;;;;;;;;;;5042265;28;20048;-78
2023/06/25 09:41:38;;;;;;;5.57;3.33;;;;;;;;;;5041423;28;20036;-78
2023/06/25 09:44:07;;;;;;;4.60;3.45;;;;;;;;;;5040145;28;20539;-78
2023/06/25 09:46:38;;;;;;;6.07;3.40;;;;;;;;;;5057876;28;20029;-79
2023/06/25 09:49:04;;;;;;;7.80;3.75;;;;;;;;;;5058219;28;20064;-79
2023/06/25 09:51:41;;;;;;;5.05;3.20;;;;;;;;;;5039195;28;20053;-79
2023/06/25 09:54:08;;;;;;;5.28;3.30;;;;;;;;;;5056919;28;20067;-79
2023/06/25 09:56:34;;;;;;;4.55;3.33;;;;;;;;;;5056705;28;20029;-79
2023/06/25 09:59:01;;;;;;;5.97;3.00;;;;;;;;;;5039183;28;20025;-78
2023/06/25 10:01:26;;;;;;;4.72;3.22;;;;;;;;;;5076887;28;20131;-78
2023/06/25 10:03:52;;;;;;;4.32;3.00;;;;;;;;;;5077236;28;20408;-79
2023/06/25 10:06:17;;;;;;;3.97;3.08;;;;;;;;;;5058704;28;20021;-79
2023/06/25 10:08:43;;;;;;;3.92;2.90;;;;;;;;;;5058774;28;20475;-78
2023/06/25 10:11:08;;;;;;;5.50;3.17;;;;;;;;;;5076626;28;20158;-78
2023/06/25 10:13:39;;;;;;;3.58;2.83;;;;;;;;;;5076329;28;20032;-78
2023/06/25 10:16:05;;;;;;;3.67;2.80;;;;;;;;;;5076916;28;20016;-78
2023/06/25 10:18:30;;;;;;;3.05;2.70;;;;;;;;;;5076776;28;20036;-78
2023/06/25 10:20:57;;;;;;;3.58;2.70;;;;;;;;;;5041698;28;20472;-78
2023/06/25 10:23:23;;;;;;;4.10;2.65;;;;;;;;;;5076260;28;20025;-79
2023/06/25 10:25:58;;;;;;;5.93;2.92;;;;;;;;;;5059263;28;20421;-78
2023/06/25 10:28:36;;;;;;;4.25;3.10;;;;;;;;;;5076573;28;20464;-79
2023/06/25 10:31:15;;;;;;;4.10;2.90;;;;;;;;;;5043130;28;20036;-78
2023/06/25 10:33:40;;;;;;;3.33;2.55;;;;;;;;;;5076301;28;20074;-78
2023/06/25 10:36:08;;;;;;;3.50;2.50;;;;;;;;;;5057832;28;20033;-79
2023/06/25 10:38:34;;;;;;;3.08;2.65;;;;;;;;;;5075796;28;20059;-79
2023/06/25 10:41:00;;;;;;;3.03;2.47;;;;;;;;;;5075808;28;20056;-77
2023/06/25 10:43:25;;;;;;;3.28;2.67;;;;;;;;;;5057946;28;20032;-78
2023/06/25 10:45:55;;;;;;;4.30;2.63;;;;;;;;;;5058245;28;20056;-78
2023/06/25 10:48:21;;;;;;;3.20;2.50;;;;;;;;;;5076228;28;20032;-79
2023/06/25 10:50:48;;;;;;;3.00;2.70;;;;;;;;;;5076168;28;20074;-78
2023/06/25 10:53:20;;;;;;;3.15;2.55;;;;;;;;;;5058276;28;20032;-78
2023/06/25 10:55:50;;;;;;;2.88;2.47;;;;;;;;;;5057651;28;20115;-78
2023/06/25 10:58:23;;;;;;;3.28;2.55;;;;;;;;;;5076234;28;20039;-78
2023/06/25 11:00:53;;;;;;;2.85;2.40;;;;;;;;;;5040775;28;20052;-78
2023/06/25 11:03:19;;;;;;;4.20;2.80;;;;;;;;;;5057604;28;20032;-78
2023/06/25 11:05:46;;;;;;;2.65;2.42;;;;;;;;;;5057531;28;20097;-79
2023/06/25 11:08:12;;;;;;;4.43;2.80;;;;;;;;;;5057334;28;20033;-79
2023/06/25 11:10:38;;;;;;;6.13;2.97;;;;;;;;;;5057383;28;20471;-78
2023/06/25 11:13:04;;;;;;;2.95;2.45;;;;;;;;;;5057373;28;20028;-79
2023/06/25 11:15:33;;;;;;;2.92;2.60;;;;;;;;;;5075100;28;20031;-78
2023/06/25 11:17:59;;;;;;;3.13;2.45;;;;;;;;;;5057716;28;20036;-78
2023/06/25 11:20:25;;;;;;;2.65;2.45;;;;;;;;;;5040658;28;20391;-78
2023/06/25 11:22:50;;;;;;;2.85;2.40;;;;;;;;;;5075095;28;20032;-77
2023/06/25 11:25:16;;;;;;;3.95;2.88;;;;;;;;;;5057560;28;20074;-79
2023/06/25 11:27:42;;;;;;;4.43;2.97;;;;;;;;;;5075075;28;20559;-78
2023/06/25 11:30:08;;;;;;;4.22;2.85;;;;;;;;;;5057058;28;20029;-78
2023/06/25 11:32:37;;;;;;;6.47;3.25;;;;;;;;;;5075469;28;20048;-78
2023/06/25 11:35:12;;;;;;;5.45;3.42;;;;;;;;;;5056994;28;20064;-78
2023/06/25 11:37:48;;;;;;;5.45;3.20;;;;;;;;;;5057223;28;20028;-78
2023/06/25 11:40:28;;;;;;;7.10;3.50;;;;;;;;;;5075079;28;20051;-78
2023/06/25 11:42:54;;;;;;;5.47;3.35;;;;;;;;;;5074822;28;20074;-78
2023/06/25 11:45:20;;;;;;;6.50;3.88;;;;;;;;;;5057212;28;20028;-78
2023/06/25 11:47:47;;;;;;;6.20;3.78;;;;;;;;;;5074665;28;20037;-78
2023/06/25 11:50:12;;;;;;;7.57;3.85;;;;;;;;;;5057079;28;20420;-78
2023/06/25 11:52:38;;;;;;;7.70;3.40;;;;;;;;;;5056607;28;20059;-78
2023/06/25 11:55:07;;;;;;;5.30;3.65;;;;;;;;;;5056875;28;20024;-78
2023/06/25 11:57:33;;;;;;;6.55;3.33;;;;;;;;;;5074567;28;20033;-78
2023/06/25 11:59:58;;;;;;;5.40;3.42;;;;;;;;;;5050416;28;20565;-78
2023/06/25 12:02:24;;;;;;;4.32;3.03;;;;;;;;;;5054292;28;20495;-78
2023/06/25 12:04:49;;;;;;;6.10;3.20;;;;;;;;;;5036635;28;20033;-79
2023/06/25 12:07:15;;;;;;;3.95;2.85;;;;;;;;;;5036442;28;20029;-78
2023/06/25 12:09:40;;;;;;;8.65;3.67;;;;;;;;;;5054271;28;20372;-79
2023/06/25 12:12:06;;;;;;;6.88;3.25;;;;;;;;;;5036319;28;20391;-78
2023/06/25 12:14:31;;;;;;;4.75;3.28;;;;;;;;;;5054239;28;20076;-78
2023/06/25 12:16:57;;;;;;;3.75;2.95;;;;;;;;;;5019755;28;20029;-78
2023/06/25 12:19:22;;;;;;;6.53;3.13;;;;;;;;;;5036290;28;20033;-79
2023/06/25 12:21:48;;;;;;;5.78;3.33;;;;;;;;;;5053916;28;20412;-78
2023/06/25 12:24:13;;;;;;;4.70;3.20;;;;;;;;;;5019693;28;20072;-78
2023/06/25 12:26:39;;;;;;;5.32;3.20;;;;;;;;;;5054331;28;20025;-79
2023/06/25 12:29:05;;;;;;;4.85;3.03;;;;;;;;;;5053856;28;20025;-79
2023/06/25 12:31:31;;;;;;;5.97;3.22;;;;;;;;;;5053701;28;20079;-80
2023/06/25 12:33:56;;;;;;;5.38;3.20;;;;;;;;;;5054103;28;20419;-78
2023/06/25 12:36:21;;;;;;;5.28;3.17;;;;;;;;;;5019310;28;20447;-78
2023/06/25 12:38:47;;;;;;;3.88;2.95;;;;;;;;;;5053984;28;20033;-79
2023/06/25 12:41:12;;;;;;;4.68;3.10;;;;;;;;;;5053923;28;20036;-78
2023/06/25 12:43:38;;;;;;;3.85;2.80;;;;;;;;;;5035890;28;20387;-78
2023/06/25 12:46:04;;;;;;;4.05;3.00;;;;;;;;;;5035772;28;20079;-78
2023/06/25 12:48:30;;;;;;;6.70;3.13;;;;;;;;;;5036168;28;20032;-78
2023/06/25 12:50:55;;;;;;;4.25;3.03;;;;;;;;;;5035807;28;20025;-78
2023/06/25 12:53:21;;;;;;;6.18;2.88;;;;;;;;;;5035669;28;20048;-78
2023/06/25 12:55:46;;;;;;;3.13;2.80;;;;;;;;;;5035854;28;20040;-78
2023/06/25 12:58:11;;;;;;;3.70;2.92;;;;;;;;;;5053294;28;20043;-78
2023/06/25 13:00:37;;;;;;;5.47;3.10;;;;;;;;;;5064294;28;20460;-78
2023/06/25 13:03:03;;;;;;;4.13;2.97;;;;;;;;;;5073408;28;20045;-78
2023/06/25 13:05:28;;;;;;;4.75;3.30;;;;;;;;;;5073865;28;20028;-78
2023/06/25 13:07:54;;;;;;;5.18;3.03;;;;;;;;;;5073285;28;20543;-79
2023/06/25 13:10:19;;;;;;;6.13;3.05;;;;;;;;;;5055363;28;20032;-78
2023/06/25 13:12:44;;;;;;;4.18;2.85;;;;;;;;;;5073508;28;20040;-79
2023/06/25 13:15:10;;;;;;;4.07;2.90;;;;;;;;;;5073099;28;20033;-79
2023/06/25 13:17:35;;;;;;;4.18;2.90;;;;;;;;;;5073323;28;20036;-78
2023/06/25 13:20:03;;;;;;;5.22;2.80;;;;;;;;;;5055257;28;20047;-78
2023/06/25 13:22:28;;;;;;;5.20;2.90;;;;;;;;;;5055947;28;20062;-78
2023/06/25 13:24:54;;;;;;;5.72;3.03;;;;;;;;;;5055221;28;20056;-78
2023/06/25 13:27:19;;;;;;;3.80;2.65;;;;;;;;;;5054689;28;20024;-79
2023/06/25 13:29:44;;;;;;;4.35;2.78;;;;;;;;;;5038361;28;20033;-78
2023/06/25 13:32:10;;;;;;;7.63;3.20;;;;;;;;;;5055054;28;20418;-78
2023/06/25 13:34:35;;;;;;;3.60;3.03;;;;;;;;;;5073017;28;20036;-78
2023/06/25 13:37:00;;;;;;;8.05;3.05;;;;;;;;;;5054897;28;20029;-78
2023/06/25 13:39:26;;;;;;;7.85;2.85;;;;;;;;;;5072655;28;20028;-78
2023/06/25 13:41:52;;;;;;;3.42;2.67;;;;;;;;;;5072908;28;20060;-78
2023/06/25 13:44:17;;;;;;;3.28;2.55;;;;;;;;;;5072425;28;20029;-79
2023/06/25 13:46:42;;;;;;;4.22;2.80;;;;;;;;;;5073097;28;20427;-79
2023/06/25 13:49:08;;;;;;;4.15;2.88;;;;;;;;;;5072868;28;20035;-79
2023/06/25 13:51:33;;;;;;;4.97;2.72;;;;;;;;;;5072807;28;20036;-78
2023/06/25 13:53:58;;;;;;;4.13;2.78;;;;;;;;;;5073111;28;20112;-78
2023/06/25 13:56:24;;;;;;;4.30;2.67;;;;;;;;;;5054785;28;20029;-78
2023/06/25 13:58:49;;;;;;;3.75;2.95;;;;;;;;;;5038341;28;20055;-79
2023/06/25 14:01:15;;;;;;;5.70;2.67;;;;;;;;;;5072580;28;20406;-79
2023/06/25 14:03:40;;;;;;;3.53;2.50;;;;;;;;;;5054987;28;20033;-79
2023/06/25 14:06:05;;;;;;;7.28;3.17;;;;;;;;;;5072808;28;20043;-78
2023/06/25 14:08:31;;;;;;;6.28;2.97;;;;;;;;;;5054791;28;20040;-78
2023/06/25 14:10:56;;;;;;;3.00;2.70;;;;;;;;;;5073267;28;20025;-78
2023/06/25 14:13:22;;;;;;;3.03;2.72;;;;;;;;;;5042002;28;20044;-78
2023/06/25 14:15:47;;;;;;;4.68;2.92;;;;;;;;;;5058489;28;20483;-78
2023/06/25 14:18:13;;;;;;;2.92;2.63;;;;;;;;;;5058662;28;20123;-78
2023/06/25 14:20:38;;;;;;;5.60;2.63;;;;;;;;;;5042156;28;20100;-78
2023/06/25 14:23:03;;;;;;;3.72;2.90;;;;;;;;;;5076540;28;20471;-79
2023/06/25 14:25:29;;;;;;;3.05;2.53;;;;;;;;;;5059210;28;20103;-78
2023/06/25 14:27:55;;;;;;;5.40;2.85;;;;;;;;;;5077577;28;20060;-78
2023/06/25 14:30:20;;;;;;;4.15;3.00;;;;;;;;;;5078180;28;20032;-77
2023/06/25 14:32:46;;;;;;;3.10;2.80;;;;;;;;;;5061569;28;20024;-78
2023/06/25 14:35:12;;;;;;;3.40;2.60;;;;;;;;;;5077699;28;20434;-78